Time;durP1;ratioP1;P1;durP2;ratioP2;P2;SDS_P1;SDS_P2;PMS_P1;PMS_P2;Temp;Humidity;BMP_temperature;BMP_pressure;BME280_temperature;BME280_humidity;BME280_pressure;Samples;Min_cycle;Max_cycle;Signal;HPM_P1;HPM_P2
2023/05/09 00:01:13;;;;;;;6.47;5.87;;;;;;;;;;4979987;28;20026;-64
2023/05/09 00:03:39;;;;;;;6.67;5.43;;;;;;;;;;4978641;28;20045;-65
2023/05/09 00:06:05;;;;;;;6.53;4.50;;;;;;;;;;4979769;28;20083;-64
2023/05/09 00:08:31;;;;;;;9.33;6.03;;;;;;;;;;4978418;28;20042;-65
2023/05/09 00:10:56;;;;;;;8.53;5.70;;;;;;;;;;4977383;28;20035;-64
2023/05/09 00:13:23;;;;;;;8.60;5.23;;;;;;;;;;4980712;28;20069;-64
2023/05/09 00:15:49;;;;;;;8.10;5.67;;;;;;;;;;4978096;28;20291;-64
2023/05/09 00:18:16;;;;;;;6.23;5.03;;;;;;;;;;4979388;28;20734;-65
2023/05/09 00:20:43;;;;;;;5.97;5.33;;;;;;;;;;4978495;28;20110;-64
2023/05/09 00:23:08;;;;;;;6.00;5.40;;;;;;;;;;4980461;28;20340;-64
2023/05/09 00:25:34;;;;;;;6.17;5.50;;;;;;;;;;4983626;28;20605;-64
2023/05/09 00:27:59;;;;;;;7.50;5.23;;;;;;;;;;4983690;28;20168;-65
2023/05/09 00:30:26;;;;;;;6.63;5.90;;;;;;;;;;4982977;28;20042;-65
2023/05/09 00:32:51;;;;;;;7.63;5.40;;;;;;;;;;4986291;28;20030;-64
2023/05/09 00:35:18;;;;;;;7.97;5.33;;;;;;;;;;4986090;28;20035;-64
2023/05/09 00:37:43;;;;;;;6.77;6.03;;;;;;;;;;4981574;28;20165;-64
2023/05/09 00:40:09;;;;;;;9.60;5.93;;;;;;;;;;4981503;28;20041;-64
2023/05/09 00:42:35;;;;;;;7.27;6.27;;;;;;;;;;4983294;28;20460;-65
2023/05/09 00:45:00;;;;;;;7.77;5.90;;;;;;;;;;4982549;28;20360;-64
2023/05/09 00:47:27;;;;;;;7.23;6.50;;;;;;;;;;4983415;28;20042;-64
2023/05/09 00:49:52;;;;;;;8.07;5.70;;;;;;;;;;4985975;28;20521;-64
2023/05/09 00:52:21;;;;;;;7.03;6.33;;;;;;;;;;4985614;28;20150;-63
2023/05/09 00:54:51;;;;;;;6.80;5.77;;;;;;;;;;4981253;28;20628;-64
2023/05/09 00:57:17;;;;;;;6.87;5.77;;;;;;;;;;4982221;28;20034;-64
2023/05/09 00:59:42;;;;;;;6.43;5.37;;;;;;;;;;4982399;28;20105;-64
2023/05/09 01:02:07;;;;;;;6.67;5.97;;;;;;;;;;4983230;28;20042;-64
2023/05/09 01:04:33;;;;;;;9.97;6.60;;;;;;;;;;4981071;28;20161;-64
2023/05/09 01:07:08;;;;;;;6.67;5.87;;;;;;;;;;4982599;28;20130;-64
2023/05/09 01:09:43;;;;;;;8.40;5.73;;;;;;;;;;4980927;28;20129;-64
2023/05/09 01:12:18;;;;;;;6.05;5.47;;;;;;;;;;4981927;28;20537;-64
2023/05/09 01:15:03;;;;;;;7.90;6.72;;;;;;;;;;4987308;28;20057;-64
2023/05/09 01:17:37;;;;;;;7.13;5.67;;;;;;;;;;4997003;28;20089;-64
2023/05/09 01:20:09;;;;;;;7.18;6.22;;;;;;;;;;4982797;28;20498;-64
2023/05/09 01:22:36;;;;;;;7.60;6.30;;;;;;;;;;4999234;28;20137;-63
2023/05/09 01:25:21;;;;;;;6.80;4.73;;;;;;;;;;4982586;28;20616;-64
2023/05/09 01:28:02;;;;;;;8.07;5.43;;;;;;;;;;4983924;28;20057;-64
2023/05/09 01:30:28;;;;;;;7.47;5.27;;;;;;;;;;4980882;28;20031;-64
2023/05/09 01:32:58;;;;;;;7.60;5.37;;;;;;;;;;4981963;28;20077;-63
2023/05/09 01:35:25;;;;;;;5.73;5.13;;;;;;;;;;4993920;28;20034;-65
2023/05/09 01:37:51;;;;;;;7.80;5.80;;;;;;;;;;4996393;28;20284;-65
2023/05/09 01:40:19;;;;;;;5.67;5.07;;;;;;;;;;4977664;28;20338;-65
2023/05/09 01:42:48;;;;;;;5.97;5.30;;;;;;;;;;4981244;28;20033;-64
2023/05/09 01:45:16;;;;;;;6.23;5.60;;;;;;;;;;4995572;28;20069;-64
2023/05/09 01:47:41;;;;;;;8.00;5.80;;;;;;;;;;4984211;28;20039;-64
2023/05/09 01:50:09;;;;;;;6.40;5.63;;;;;;;;;;4998886;28;20044;-65
2023/05/09 01:52:35;;;;;;;7.77;6.27;;;;;;;;;;4981489;28;20042;-65
2023/05/09 01:55:01;;;;;;;10.60;5.53;;;;;;;;;;4983381;28;20110;-66
2023/05/09 01:57:28;;;;;;;6.80;6.20;;;;;;;;;;4982856;28;20658;-65
2023/05/09 01:59:54;;;;;;;8.07;5.40;;;;;;;;;;4997522;28;20520;-65
2023/05/09 02:02:20;;;;;;;8.63;6.07;;;;;;;;;;4981096;28;20088;-66
2023/05/09 02:04:46;;;;;;;7.53;6.00;;;;;;;;;;4983332;28;20038;-65
2023/05/09 02:07:12;;;;;;;11.63;6.63;;;;;;;;;;4981038;28;20034;-65
2023/05/09 02:09:37;;;;;;;7.83;6.07;;;;;;;;;;4978839;28;20046;-65
2023/05/09 02:12:03;;;;;;;7.27;5.70;;;;;;;;;;4984514;28;20650;-66
2023/05/09 02:14:29;;;;;;;7.37;6.50;;;;;;;;;;4981170;28;20068;-65
2023/05/09 02:16:55;;;;;;;6.67;6.07;;;;;;;;;;4987289;28;20077;-65
2023/05/09 02:19:20;;;;;;;6.67;5.97;;;;;;;;;;4983358;28;20511;-65
2023/05/09 02:21:46;;;;;;;9.00;6.83;;;;;;;;;;4978675;28;20046;-63
2023/05/09 02:24:12;;;;;;;7.90;7.00;;;;;;;;;;4982115;28;20492;-65
2023/05/09 02:26:39;;;;;;;7.40;6.10;;;;;;;;;;4979297;28;20065;-64
2023/05/09 02:29:05;;;;;;;8.40;6.10;;;;;;;;;;4981471;28;20045;-63
2023/05/09 02:31:32;;;;;;;8.97;6.77;;;;;;;;;;4972421;28;20592;-64
2023/05/09 02:33:58;;;;;;;9.67;7.10;;;;;;;;;;4979374;28;20039;-64
2023/05/09 02:36:24;;;;;;;9.80;7.27;;;;;;;;;;4984415;28;20099;-65
2023/05/09 02:38:49;;;;;;;9.03;7.70;;;;;;;;;;4982325;28;20042;-64
2023/05/09 02:41:15;;;;;;;8.70;7.20;;;;;;;;;;4984960;28;20476;-64
2023/05/09 02:43:40;;;;;;;9.20;7.00;;;;;;;;;;4980685;28;20072;-64
2023/05/09 02:46:07;;;;;;;10.83;8.10;;;;;;;;;;4978945;28;20043;-65
2023/05/09 02:48:32;;;;;;;11.40;7.63;;;;;;;;;;4980240;28;20446;-64
2023/05/09 02:50:58;;;;;;;9.80;7.63;;;;;;;;;;4978758;28;20054;-64
2023/05/09 02:53:23;;;;;;;8.73;7.10;;;;;;;;;;4980084;28;20051;-65
2023/05/09 02:55:49;;;;;;;8.40;6.93;;;;;;;;;;4969208;28;20037;-66
2023/05/09 02:58:15;;;;;;;7.57;6.17;;;;;;;;;;4980198;28;20054;-63
2023/05/09 03:00:42;;;;;;;9.20;6.93;;;;;;;;;;4972447;28;20045;-64
2023/05/09 03:03:07;;;;;;;9.27;6.37;;;;;;;;;;4979277;28;20531;-63
2023/05/09 03:05:33;;;;;;;6.87;5.67;;;;;;;;;;4992537;28;20043;-63
2023/05/09 03:07:58;;;;;;;8.20;6.47;;;;;;;;;;4978802;28;20029;-62
2023/05/09 03:10:25;;;;;;;8.60;6.43;;;;;;;;;;4971229;28;20158;-62
2023/05/09 03:12:50;;;;;;;9.33;5.70;;;;;;;;;;4971806;28;20038;-62
2023/05/09 03:15:16;;;;;;;9.57;6.23;;;;;;;;;;4986008;28;20444;-62
2023/05/09 03:17:45;;;;;;;8.73;6.63;;;;;;;;;;4979686;28;20065;-62
2023/05/09 03:20:11;;;;;;;9.63;5.83;;;;;;;;;;4981047;28;20105;-63
2023/05/09 03:22:38;;;;;;;10.43;6.80;;;;;;;;;;4984033;28;20058;-62
2023/05/09 03:25:06;;;;;;;10.20;6.50;;;;;;;;;;4970483;28;20031;-62
2023/05/09 03:27:32;;;;;;;7.50;6.57;;;;;;;;;;4982421;28;20065;-62
2023/05/09 03:29:57;;;;;;;9.20;6.57;;;;;;;;;;4985187;28;20474;-62
2023/05/09 03:32:25;;;;;;;7.37;6.23;;;;;;;;;;4980138;28;20046;-62
2023/05/09 03:34:50;;;;;;;10.37;6.20;;;;;;;;;;4971248;28;20396;-62
2023/05/09 03:37:16;;;;;;;7.77;6.03;;;;;;;;;;4979108;28;20042;-61
2023/05/09 03:39:42;;;;;;;8.10;6.87;;;;;;;;;;4992215;28;20039;-62
2023/05/09 03:42:08;;;;;;;9.17;6.67;;;;;;;;;;4981489;28;20066;-63
2023/05/09 03:44:33;;;;;;;12.23;6.57;;;;;;;;;;4980925;28;20465;-61
2023/05/09 03:46:59;;;;;;;7.10;6.23;;;;;;;;;;4978832;28;20100;-63
2023/05/09 03:49:26;;;;;;;10.27;6.83;;;;;;;;;;4983488;28;20191;-63
2023/05/09 03:51:52;;;;;;;7.27;6.13;;;;;;;;;;4970642;28;20026;-63
2023/05/09 03:54:18;;;;;;;10.00;6.33;;;;;;;;;;4979768;28;20408;-62
2023/05/09 03:56:45;;;;;;;8.07;6.23;;;;;;;;;;4983153;28;20090;-63
2023/05/09 03:59:11;;;;;;;10.03;6.53;;;;;;;;;;4982042;28;20399;-62
2023/05/09 04:01:38;;;;;;;8.30;6.50;;;;;;;;;;4986683;28;20030;-63
2023/05/09 04:04:04;;;;;;;9.10;7.67;;;;;;;;;;4982663;28;20030;-63
2023/05/09 04:06:32;;;;;;;8.90;6.60;;;;;;;;;;4975363;28;20069;-62
2023/05/09 04:08:58;;;;;;;9.30;6.70;;;;;;;;;;4981161;28;20169;-63
2023/05/09 04:11:24;;;;;;;10.53;6.23;;;;;;;;;;4970939;28;20042;-62
2023/05/09 04:13:50;;;;;;;10.73;6.93;;;;;;;;;;4974434;28;20273;-63
2023/05/09 04:16:24;;;;;;;6.28;4.57;;;;;;;;;;4998204;28;20505;-63
2023/05/09 04:18:50;;;;;;;12.27;7.40;;;;;;;;;;4982527;28;20130;-62
2023/05/09 04:21:15;;;;;;;10.47;6.90;;;;;;;;;;4985015;28;20038;-62
2023/05/09 04:23:43;;;;;;;12.43;7.00;;;;;;;;;;4984567;28;20474;-62
2023/05/09 04:26:12;;;;;;;13.87;9.07;;;;;;;;;;4982526;28;20080;-62
2023/05/09 04:28:38;;;;;;;11.53;7.73;;;;;;;;;;4964164;28;20042;-62
2023/05/09 04:31:03;;;;;;;10.53;6.60;;;;;;;;;;4989646;28;20426;-62
2023/05/09 04:33:30;;;;;;;12.17;6.40;;;;;;;;;;4982165;28;20042;-64
2023/05/09 04:35:59;;;;;;;11.13;6.53;;;;;;;;;;4969136;28;20034;-63
2023/05/09 04:38:25;;;;;;;8.57;6.87;;;;;;;;;;4988891;28;20366;-63
2023/05/09 04:40:50;;;;;;;10.13;7.50;;;;;;;;;;4981816;28;20549;-63
2023/05/09 04:43:16;;;;;;;14.03;7.20;;;;;;;;;;4982342;28;20479;-63
2023/05/09 04:45:41;;;;;;;10.37;7.10;;;;;;;;;;4984764;28;20426;-63
2023/05/09 04:48:06;;;;;;;12.57;8.37;;;;;;;;;;4986338;28;20034;-61
2023/05/09 04:50:32;;;;;;;14.17;7.57;;;;;;;;;;4986529;28;20536;-62
2023/05/09 04:52:58;;;;;;;10.70;7.40;;;;;;;;;;4984076;28;20100;-62
2023/05/09 04:55:23;;;;;;;10.13;7.40;;;;;;;;;;4982179;28;20391;-62
2023/05/09 04:57:49;;;;;;;8.93;6.17;;;;;;;;;;4996724;28;20137;-62
2023/05/09 05:00:16;;;;;;;8.70;6.03;;;;;;;;;;4982790;28;20043;-64
2023/05/09 05:02:43;;;;;;;10.17;6.30;;;;;;;;;;4981706;28;20060;-62
2023/05/09 05:05:09;;;;;;;9.00;5.90;;;;;;;;;;4986353;28;20423;-58
2023/05/09 05:07:37;;;;;;;10.80;7.03;;;;;;;;;;4981244;28;20046;-60
2023/05/09 05:10:05;;;;;;;10.80;6.37;;;;;;;;;;4971403;28;20073;-66
2023/05/09 05:12:31;;;;;;;10.27;6.33;;;;;;;;;;4987220;28;20193;-66
2023/05/09 05:14:56;;;;;;;10.00;6.20;;;;;;;;;;4980933;28;20647;-66
2023/05/09 05:17:23;;;;;;;6.83;5.50;;;;;;;;;;4981804;28;20041;-64
2023/05/09 05:19:49;;;;;;;8.57;5.77;;;;;;;;;;4988219;28;20063;-66
2023/05/09 05:22:14;;;;;;;11.70;6.23;;;;;;;;;;4967871;28;20116;-66
2023/05/09 05:24:42;;;;;;;11.27;6.60;;;;;;;;;;4979322;28;20532;-66
2023/05/09 05:27:08;;;;;;;9.13;6.73;;;;;;;;;;4981325;28;20174;-65
2023/05/09 05:29:34;;;;;;;6.83;5.60;;;;;;;;;;4984137;28;20461;-64
2023/05/09 05:31:59;;;;;;;7.60;6.30;;;;;;;;;;4984424;28;20322;-64
2023/05/09 05:34:24;;;;;;;7.57;5.88;;;;;;;;;;4983131;28;20026;-61
2023/05/09 05:36:50;;;;;;;5.53;4.70;;;;;;;;;;4971506;28;20391;-60
2023/05/09 05:39:16;;;;;;;8.10;5.63;;;;;;;;;;4981717;28;20453;-61
2023/05/09 05:41:42;;;;;;;8.95;4.68;;;;;;;;;;4982260;28;20057;-62
2023/05/09 05:44:08;;;;;;;6.88;5.45;;;;;;;;;;4994770;28;20046;-61
2023/05/09 05:46:34;;;;;;;7.65;5.40;;;;;;;;;;4996952;28;20551;-62
2023/05/09 05:49:00;;;;;;;7.18;6.50;;;;;;;;;;4985433;28;20456;-62
2023/05/09 05:51:26;;;;;;;6.65;4.75;;;;;;;;;;4984083;28;20035;-62
2023/05/09 05:53:52;;;;;;;4.85;4.28;;;;;;;;;;4984719;28;20046;-60
2023/05/09 05:56:17;;;;;;;6.13;4.00;;;;;;;;;;4984869;28;20415;-62
2023/05/09 05:58:43;;;;;;;5.80;3.88;;;;;;;;;;4971666;28;20056;-63
2023/05/09 06:01:09;;;;;;;5.13;4.07;;;;;;;;;;4971594;28;20053;-63
2023/05/09 06:03:34;;;;;;;10.88;4.38;;;;;;;;;;4972108;28;20031;-63
2023/05/09 06:06:03;;;;;;;5.03;4.53;;;;;;;;;;4980602;28;20118;-62
2023/05/09 06:08:29;;;;;;;4.05;3.60;;;;;;;;;;4982124;28;20121;-63
2023/05/09 06:10:54;;;;;;;5.70;3.97;;;;;;;;;;4986800;28;20486;-63
2023/05/09 06:13:19;;;;;;;4.95;4.20;;;;;;;;;;4982200;28;20092;-64
2023/05/09 06:15:53;;;;;;;4.63;4.03;;;;;;;;;;4969912;28;20116;-62
2023/05/09 06:18:19;;;;;;;5.00;3.30;;;;;;;;;;4971551;28;20184;-63
2023/05/09 06:20:44;;;;;;;3.72;3.10;;;;;;;;;;4979839;28;20046;-62
2023/05/09 06:23:10;;;;;;;4.82;3.30;;;;;;;;;;4982755;28;20450;-63
2023/05/09 06:25:35;;;;;;;4.88;3.88;;;;;;;;;;4981308;28;20044;-62
2023/05/09 06:28:00;;;;;;;3.97;3.10;;;;;;;;;;4981364;28;20042;-62
2023/05/09 06:30:26;;;;;;;6.03;3.97;;;;;;;;;;4980063;28;20043;-62
2023/05/09 06:32:52;;;;;;;5.18;4.00;;;;;;;;;;4981954;28;20034;-62
2023/05/09 06:35:17;;;;;;;6.57;4.75;;;;;;;;;;4979932;28;20051;-62
2023/05/09 06:37:43;;;;;;;4.78;3.30;;;;;;;;;;4979169;28;20708;-62
2023/05/09 06:40:08;;;;;;;3.83;3.45;;;;;;;;;;4982356;28;20609;-63
2023/05/09 06:42:34;;;;;;;5.25;4.35;;;;;;;;;;4980631;28;20686;-63
2023/05/09 06:44:59;;;;;;;3.92;3.47;;;;;;;;;;4979591;28;20038;-63
2023/05/09 06:47:25;;;;;;;5.93;3.97;;;;;;;;;;4980319;28;20038;-62
2023/05/09 06:49:50;;;;;;;4.60;3.90;;;;;;;;;;4980864;28;20046;-63
2023/05/09 06:52:16;;;;;;;6.63;3.70;;;;;;;;;;4981544;28;20051;-64
2023/05/09 06:54:41;;;;;;;4.10;3.58;;;;;;;;;;4979451;28;20030;-63
2023/05/09 06:57:07;;;;;;;3.70;3.40;;;;;;;;;;4981957;28;20430;-64
2023/05/09 06:59:32;;;;;;;4.63;3.45;;;;;;;;;;4977349;28;20165;-61
2023/05/09 07:01:57;;;;;;;4.30;3.22;;;;;;;;;;4985209;28;20065;-62
2023/05/09 07:04:23;;;;;;;6.05;3.67;;;;;;;;;;4979678;28;20060;-62
2023/05/09 07:06:49;;;;;;;12.25;6.65;;;;;;;;;;4980050;28;20038;-61
2023/05/09 07:09:19;;;;;;;5.63;4.68;;;;;;;;;;4981480;28;20045;-61
2023/05/09 07:11:44;;;;;;;5.05;4.55;;;;;;;;;;4977404;28;20038;-63
2023/05/09 07:14:10;;;;;;;5.43;4.35;;;;;;;;;;4981018;28;20034;-63
2023/05/09 07:16:35;;;;;;;6.40;3.72;;;;;;;;;;4980152;28;20117;-62
2023/05/09 07:19:01;;;;;;;4.35;3.85;;;;;;;;;;4981478;28;20042;-63
2023/05/09 07:21:26;;;;;;;6.15;5.28;;;;;;;;;;4983164;28;20034;-62
2023/05/09 07:23:51;;;;;;;5.70;4.07;;;;;;;;;;4979490;28;20181;-62
2023/05/09 07:26:17;;;;;;;6.35;3.60;;;;;;;;;;4981777;28;20030;-61
2023/05/09 07:28:42;;;;;;;4.47;3.45;;;;;;;;;;4979120;28;20081;-61
2023/05/09 07:31:08;;;;;;;3.88;3.33;;;;;;;;;;4979508;28;20058;-60
2023/05/09 07:33:33;;;;;;;5.18;3.63;;;;;;;;;;4980964;28;20114;-61
2023/05/09 07:35:59;;;;;;;3.85;3.47;;;;;;;;;;4980396;28;20118;-61
2023/05/09 07:38:25;;;;;;;4.65;3.53;;;;;;;;;;4980785;28;20565;-60
2023/05/09 07:40:52;;;;;;;3.92;3.63;;;;;;;;;;4984348;28;20374;-63
2023/05/09 07:43:17;;;;;;;3.92;3.63;;;;;;;;;;4980674;28;20042;-61
2023/05/09 07:45:43;;;;;;;5.32;4.10;;;;;;;;;;4982507;28;20034;-61
2023/05/09 07:48:08;;;;;;;4.03;3.63;;;;;;;;;;4978329;28;20427;-60
2023/05/09 07:50:34;;;;;;;4.97;3.45;;;;;;;;;;4978548;28;20492;-61
2023/05/09 07:52:59;;;;;;;4.38;3.97;;;;;;;;;;4978865;28;20124;-61
2023/05/09 07:55:25;;;;;;;4.25;3.90;;;;;;;;;;4980464;28;20030;-61
2023/05/09 07:57:50;;;;;;;4.00;3.70;;;;;;;;;;4980108;28;20059;-60
2023/05/09 08:00:16;;;;;;;3.75;3.47;;;;;;;;;;4976511;28;20046;-63
2023/05/09 08:02:41;;;;;;;4.80;3.97;;;;;;;;;;4978990;28;20069;-63
2023/05/09 08:05:07;;;;;;;3.83;3.42;;;;;;;;;;4979342;28;20052;-62
2023/05/09 08:07:32;;;;;;;4.15;3.65;;;;;;;;;;4980146;28;20149;-61
2023/05/09 08:09:58;;;;;;;5.03;3.88;;;;;;;;;;4980686;28;20116;-63
2023/05/09 08:12:23;;;;;;;3.90;3.25;;;;;;;;;;4980097;28;20046;-62
2023/05/09 08:14:49;;;;;;;4.65;4.25;;;;;;;;;;4978505;28;20038;-62
2023/05/09 08:17:15;;;;;;;3.78;3.47;;;;;;;;;;4974202;28;20506;-61
2023/05/09 08:19:40;;;;;;;4.20;3.90;;;;;;;;;;4978123;28;20559;-63
2023/05/09 08:22:05;;;;;;;5.70;4.25;;;;;;;;;;4980843;28;20081;-63
2023/05/09 08:24:31;;;;;;;4.88;4.47;;;;;;;;;;4980748;28;20417;-63
2023/05/09 08:26:56;;;;;;;3.15;2.95;;;;;;;;;;4980400;28;20119;-63
2023/05/09 08:29:22;;;;;;;4.25;3.85;;;;;;;;;;4979783;28;20422;-64
2023/05/09 08:31:47;;;;;;;4.10;3.80;;;;;;;;;;4979507;28;20034;-65
2023/05/09 08:34:13;;;;;;;6.60;4.70;;;;;;;;;;4980368;28;20437;-65
2023/05/09 08:36:39;;;;;;;4.75;4.35;;;;;;;;;;4978128;28;20113;-64
2023/05/09 08:39:05;;;;;;;4.93;3.88;;;;;;;;;;4978253;28;20042;-65
2023/05/09 08:41:32;;;;;;;4.03;3.72;;;;;;;;;;4980451;28;20513;-65
2023/05/09 08:43:57;;;;;;;5.78;4.10;;;;;;;;;;4981587;28;20426;-65
2023/05/09 08:46:28;;;;;;;3.90;3.55;;;;;;;;;;4984043;28;20117;-65
2023/05/09 08:48:53;;;;;;;4.55;4.13;;;;;;;;;;4981869;28;20039;-65
2023/05/09 08:51:20;;;;;;;6.78;3.83;;;;;;;;;;4982571;28;20047;-65
2023/05/09 08:53:45;;;;;;;5.15;4.10;;;;;;;;;;4981754;28;20440;-64
2023/05/09 08:56:11;;;;;;;4.35;3.95;;;;;;;;;;4981738;28;20411;-65
2023/05/09 08:58:37;;;;;;;3.92;3.63;;;;;;;;;;4981528;28;20050;-66
2023/05/09 09:01:05;;;;;;;6.82;4.10;;;;;;;;;;4984649;28;20061;-65
2023/05/09 09:03:31;;;;;;;4.63;3.92;;;;;;;;;;4982589;28;20066;-65
2023/05/09 09:05:57;;;;;;;5.00;4.57;;;;;;;;;;4997285;28;20377;-65
2023/05/09 09:08:22;;;;;;;5.10;4.50;;;;;;;;;;4982386;28;20030;-65
2023/05/09 09:10:48;;;;;;;5.15;4.60;;;;;;;;;;4981545;28;20240;-64
2023/05/09 09:13:15;;;;;;;4.22;3.78;;;;;;;;;;4982862;28;20109;-66
2023/05/09 09:15:42;;;;;;;5.53;3.70;;;;;;;;;;4985552;28;20030;-66
2023/05/09 09:18:08;;;;;;;6.18;3.88;;;;;;;;;;4983470;28;20047;-66
2023/05/09 09:20:34;;;;;;;5.43;4.40;;;;;;;;;;4982549;28;20417;-66
2023/05/09 09:23:02;;;;;;;4.95;4.53;;;;;;;;;;4982803;28;20053;-66
2023/05/09 09:25:28;;;;;;;5.28;4.35;;;;;;;;;;4982493;28;20034;-66
2023/05/09 09:27:53;;;;;;;4.55;4.25;;;;;;;;;;4981300;28;20374;-66
2023/05/09 09:30:18;;;;;;;4.72;4.32;;;;;;;;;;4983904;28;20121;-66
2023/05/09 09:32:44;;;;;;;4.90;4.50;;;;;;;;;;4978079;28;20379;-66
2023/05/09 09:35:10;;;;;;;4.47;4.07;;;;;;;;;;4982547;28;20034;-65
2023/05/09 09:37:38;;;;;;;4.50;4.20;;;;;;;;;;4981259;28;20116;-67
2023/05/09 09:40:05;;;;;;;5.20;4.70;;;;;;;;;;4982790;28;20496;-66
2023/05/09 09:42:41;;;;;;;5.10;4.60;;;;;;;;;;4982778;28;20038;-67
2023/05/09 09:45:26;;;;;;;4.60;4.30;;;;;;;;;;4984182;28;20579;-66
2023/05/09 09:47:53;;;;;;;6.40;4.65;;;;;;;;;;4981847;28;20038;-66
2023/05/09 09:50:21;;;;;;;7.07;4.10;;;;;;;;;;4980979;28;20061;-66
2023/05/09 09:52:59;;;;;;;5.47;4.32;;;;;;;;;;4982126;28;20231;-66
2023/05/09 09:55:24;;;;;;;6.75;5.05;;;;;;;;;;4982761;28;20043;-63
2023/05/09 09:57:50;;;;;;;11.82;4.75;;;;;;;;;;4980820;28;20962;-65
2023/05/09 10:00:17;;;;;;;6.45;3.92;;;;;;;;;;4983086;28;20448;-64
2023/05/09 10:02:46;;;;;;;4.68;4.28;;;;;;;;;;4980732;28;20090;-64
2023/05/09 10:05:17;;;;;;;4.10;3.80;;;;;;;;;;4984047;28;20034;-64
2023/05/09 10:07:42;;;;;;;4.60;4.20;;;;;;;;;;4980161;28;20042;-64
2023/05/09 10:10:08;;;;;;;4.57;4.10;;;;;;;;;;4979229;28;20042;-64
2023/05/09 10:12:35;;;;;;;6.10;4.13;;;;;;;;;;4979043;28;20043;-65
2023/05/09 10:15:02;;;;;;;5.75;3.95;;;;;;;;;;4986659;28;20503;-65
2023/05/09 10:17:30;;;;;;;6.15;4.18;;;;;;;;;;4979239;28;20050;-65
2023/05/09 10:19:55;;;;;;;5.07;4.57;;;;;;;;;;4979954;28;20068;-64
2023/05/09 10:22:23;;;;;;;4.38;4.03;;;;;;;;;;4979999;28;20043;-63
2023/05/09 10:25:02;;;;;;;4.10;3.80;;;;;;;;;;4979745;28;20037;-65
2023/05/09 10:27:29;;;;;;;5.75;3.90;;;;;;;;;;4980251;28;20098;-66
2023/05/09 10:30:00;;;;;;;14.15;4.45;;;;;;;;;;4983108;28;20038;-64
2023/05/09 10:32:30;;;;;;;6.13;3.97;;;;;;;;;;4984062;28;20419;-63
2023/05/09 10:34:57;;;;;;;4.25;3.88;;;;;;;;;;4981190;28;20062;-63
2023/05/09 10:37:23;;;;;;;5.68;3.70;;;;;;;;;;4982650;28;20046;-64
2023/05/09 10:39:54;;;;;;;4.40;4.00;;;;;;;;;;4982744;28;20034;-64
2023/05/09 10:42:19;;;;;;;5.38;4.20;;;;;;;;;;4982528;28;20446;-64
2023/05/09 10:44:45;;;;;;;4.32;3.60;;;;;;;;;;4979800;28;20541;-64
2023/05/09 10:47:12;;;;;;;4.22;3.83;;;;;;;;;;4977084;28;20038;-64
2023/05/09 10:49:37;;;;;;;4.07;3.72;;;;;;;;;;4979627;28;20029;-64
2023/05/09 10:52:03;;;;;;;5.78;4.15;;;;;;;;;;4979520;28;20312;-64
2023/05/09 10:54:32;;;;;;;6.55;3.65;;;;;;;;;;4978699;28;20633;-64
2023/05/09 10:56:57;;;;;;;4.88;3.97;;;;;;;;;;4980359;28;20445;-61
2023/05/09 10:59:36;;;;;;;4.57;4.18;;;;;;;;;;4980428;28;20038;-62
2023/05/09 11:02:03;;;;;;;3.92;3.63;;;;;;;;;;4979867;28;20041;-62
2023/05/09 11:04:29;;;;;;;4.20;3.80;;;;;;;;;;4980197;28;20537;-64
2023/05/09 11:06:55;;;;;;;5.07;3.72;;;;;;;;;;4982566;28;20058;-63
2023/05/09 11:09:34;;;;;;;4.07;3.53;;;;;;;;;;4979296;28;20132;-63
2023/05/09 11:12:12;;;;;;;8.65;3.72;;;;;;;;;;4979136;28;20382;-63
2023/05/09 11:14:45;;;;;;;5.03;4.35;;;;;;;;;;4981459;28;20038;-63
2023/05/09 11:17:23;;;;;;;5.13;3.47;;;;;;;;;;4978712;28;20046;-62
2023/05/09 11:19:49;;;;;;;4.15;3.72;;;;;;;;;;4979859;28;20034;-63
2023/05/09 11:22:16;;;;;;;5.07;3.72;;;;;;;;;;4979628;28;20523;-63
2023/05/09 11:24:48;;;;;;;4.13;3.75;;;;;;;;;;4979685;28;20038;-63
2023/05/09 11:27:24;;;;;;;4.78;3.80;;;;;;;;;;4978774;28;20044;-64
2023/05/09 11:29:57;;;;;;;5.20;4.07;;;;;;;;;;4977604;28;20061;-63
2023/05/09 11:32:31;;;;;;;3.55;3.25;;;;;;;;;;4979687;28;20084;-63
2023/05/09 11:35:08;;;;;;;3.90;3.60;;;;;;;;;;4979588;28;20093;-63
2023/05/09 11:37:44;;;;;;;4.63;4.22;;;;;;;;;;4975778;28;20077;-63
2023/05/09 11:40:10;;;;;;;4.32;3.95;;;;;;;;;;4980991;28;20284;-62
2023/05/09 11:42:40;;;;;;;3.85;3.55;;;;;;;;;;4982722;28;20026;-62
2023/05/09 11:45:06;;;;;;;4.53;3.83;;;;;;;;;;4977850;28;20522;-62
2023/05/09 11:47:31;;;;;;;4.13;3.72;;;;;;;;;;4976606;28;20419;-63
2023/05/09 11:49:57;;;;;;;7.10;3.63;;;;;;;;;;4982941;28;20033;-63
2023/05/09 11:52:22;;;;;;;4.13;3.83;;;;;;;;;;4978264;28;20559;-62
2023/05/09 11:54:49;;;;;;;3.80;3.50;;;;;;;;;;4979863;28;20382;-63
2023/05/09 11:57:16;;;;;;;4.28;3.60;;;;;;;;;;4980175;28;20100;-62
2023/05/09 11:59:45;;;;;;;4.03;3.47;;;;;;;;;;4978391;28;20156;-63
2023/05/09 12:02:10;;;;;;;4.53;4.13;;;;;;;;;;4979476;28;20043;-64
2023/05/09 12:04:37;;;;;;;4.45;3.50;;;;;;;;;;4978842;28;20045;-65
2023/05/09 12:07:03;;;;;;;4.68;3.60;;;;;;;;;;4981044;28;20042;-64
2023/05/09 12:09:33;;;;;;;4.60;4.30;;;;;;;;;;4975205;28;20039;-64
2023/05/09 12:11:59;;;;;;;4.15;3.80;;;;;;;;;;4980359;28;20022;-65
2023/05/09 12:14:25;;;;;;;4.15;3.75;;;;;;;;;;4979628;28;20627;-64
2023/05/09 12:16:51;;;;;;;3.97;3.65;;;;;;;;;;4979344;28;20218;-64
2023/05/09 12:19:17;;;;;;;4.68;4.20;;;;;;;;;;4985870;28;20108;-64
2023/05/09 12:21:42;;;;;;;3.75;3.42;;;;;;;;;;4981524;28;20034;-64
2023/05/09 12:24:08;;;;;;;4.25;3.83;;;;;;;;;;4982958;28;20029;-64
2023/05/09 12:26:34;;;;;;;4.63;3.17;;;;;;;;;;4984194;28;20516;-64
2023/05/09 12:28:59;;;;;;;4.75;3.42;;;;;;;;;;4984572;28;20034;-64
2023/05/09 12:31:25;;;;;;;3.55;3.25;;;;;;;;;;4984552;28;20109;-64
2023/05/09 12:33:50;;;;;;;4.97;4.05;;;;;;;;;;4982249;28;20037;-63
2023/05/09 12:36:16;;;;;;;5.00;4.47;;;;;;;;;;4982989;28;20042;-64
2023/05/09 12:38:51;;;;;;;4.07;3.67;;;;;;;;;;4984132;28;20082;-65
2023/05/09 12:41:17;;;;;;;4.30;3.75;;;;;;;;;;4981695;28;20041;-64
2023/05/09 12:43:46;;;;;;;4.07;3.67;;;;;;;;;;4983110;28;20105;-64
2023/05/09 12:46:12;;;;;;;3.80;3.50;;;;;;;;;;4983284;28;20107;-64
2023/05/09 12:48:37;;;;;;;3.85;3.55;;;;;;;;;;4983955;28;20055;-64
2023/05/09 12:51:06;;;;;;;4.00;3.67;;;;;;;;;;4982355;28;20426;-64
2023/05/09 12:53:36;;;;;;;4.70;3.35;;;;;;;;;;4982197;28;20031;-64
2023/05/09 12:56:02;;;;;;;4.28;3.88;;;;;;;;;;4981865;28;20168;-64
2023/05/09 12:58:31;;;;;;;3.67;3.38;;;;;;;;;;4985424;28;20164;-64
2023/05/09 13:01:02;;;;;;;3.92;2.92;;;;;;;;;;4982082;28;20034;-63
2023/05/09 13:03:36;;;;;;;3.00;2.80;;;;;;;;;;4982697;28;20117;-63
2023/05/09 13:06:03;;;;;;;3.35;3.15;;;;;;;;;;4983416;28;20096;-64
2023/05/09 13:08:29;;;;;;;4.53;4.22;;;;;;;;;;4984069;28;20511;-63
2023/05/09 13:10:56;;;;;;;3.55;3.35;;;;;;;;;;4981749;28;20034;-64
2023/05/09 13:13:25;;;;;;;4.78;3.83;;;;;;;;;;4979635;28;20434;-64
2023/05/09 13:15:50;;;;;;;7.07;3.83;;;;;;;;;;4987016;28;20040;-64
2023/05/09 13:18:16;;;;;;;4.25;3.50;;;;;;;;;;4981026;28;20051;-64
2023/05/09 13:20:42;;;;;;;5.22;3.42;;;;;;;;;;4980886;28;20046;-64
2023/05/09 13:23:07;;;;;;;4.38;3.60;;;;;;;;;;4982746;28;20061;-64
2023/05/09 13:25:33;;;;;;;14.15;3.63;;;;;;;;;;4998297;28;20092;-64
2023/05/09 13:27:58;;;;;;;4.40;3.88;;;;;;;;;;4983001;28;20430;-62
2023/05/09 13:30:24;;;;;;;3.35;3.10;;;;;;;;;;4982158;28;20072;-65
2023/05/09 13:32:50;;;;;;;4.50;3.70;;;;;;;;;;4977273;28;20038;-64
2023/05/09 13:35:15;;;;;;;5.25;4.22;;;;;;;;;;4981026;28;20038;-64
2023/05/09 13:37:42;;;;;;;6.70;3.50;;;;;;;;;;4984908;28;20676;-64
2023/05/09 13:40:07;;;;;;;4.90;3.05;;;;;;;;;;4983574;28;20057;-65
2023/05/09 13:42:34;;;;;;;2.92;2.72;;;;;;;;;;4982171;28;20515;-65
2023/05/09 13:44:59;;;;;;;3.20;2.90;;;;;;;;;;4981710;28;20034;-65
2023/05/09 13:47:25;;;;;;;4.05;3.35;;;;;;;;;;4984254;28;20201;-65
2023/05/09 13:49:51;;;;;;;3.63;3.33;;;;;;;;;;4982512;28;20772;-64
2023/05/09 13:52:16;;;;;;;6.35;3.58;;;;;;;;;;4982129;28;20030;-65
2023/05/09 13:54:42;;;;;;;7.47;3.40;;;;;;;;;;4983652;28;20034;-65
2023/05/09 13:57:08;;;;;;;3.83;3.60;;;;;;;;;;4984551;28;20440;-65
2023/05/09 13:59:33;;;;;;;4.00;2.90;;;;;;;;;;4982406;28;20043;-65
2023/05/09 14:01:59;;;;;;;3.35;3.05;;;;;;;;;;4979120;28;20026;-63
2023/05/09 14:04:26;;;;;;;8.07;6.47;;;;;;;;;;4977701;28;20038;-64
2023/05/09 14:06:52;;;;;;;3.33;3.03;;;;;;;;;;4981409;28;20066;-66
2023/05/09 14:09:18;;;;;;;4.00;3.67;;;;;;;;;;4978430;28;20035;-63
2023/05/09 14:11:43;;;;;;;3.20;3.00;;;;;;;;;;4979964;28;20584;-63
2023/05/09 14:14:09;;;;;;;5.10;3.53;;;;;;;;;;4984624;28;20418;-63
2023/05/09 14:16:34;;;;;;;3.88;3.47;;;;;;;;;;4980575;28;20066;-64
2023/05/09 14:19:00;;;;;;;4.03;3.72;;;;;;;;;;4981109;28;20169;-63
2023/05/09 14:21:26;;;;;;;3.47;3.22;;;;;;;;;;4983807;28;20163;-65
2023/05/09 14:23:51;;;;;;;3.88;3.55;;;;;;;;;;4982464;28;20106;-62
2023/05/09 14:26:18;;;;;;;4.28;3.88;;;;;;;;;;4979019;28;20104;-63
2023/05/09 14:28:43;;;;;;;6.15;3.85;;;;;;;;;;4980939;28;20046;-60
2023/05/09 14:31:09;;;;;;;3.85;3.03;;;;;;;;;;4981209;28;20077;-63
2023/05/09 14:33:35;;;;;;;5.78;3.33;;;;;;;;;;4981057;28;20129;-62
2023/05/09 14:36:01;;;;;;;3.70;3.40;;;;;;;;;;4980482;28;20038;-63
2023/05/09 14:38:28;;;;;;;6.38;3.58;;;;;;;;;;4979216;28;20109;-64